sensor_id;sensor_type;location;lat;lon;timestamp;P1;durP1;ratioP1;P2;durP2;ratioP2
39346;SDS011;26262;49.836;6.632;2023-01-28T00:00:32;24.23;;;12.13;;
39346;SDS011;26262;49.836;6.632;2023-01-28T00:02:58;18.58;;;9.98;;
39346;SDS011;26262;49.836;6.632;2023-01-28T00:05:24;17.10;;;9.57;;
39346;SDS011;26262;49.836;6.632;2023-01-28T00:07:49;12.15;;;8.00;;
39346;SDS011;26262;49.836;6.632;2023-01-28T00:10:15;10.52;;;6.95;;
39346;SDS011;26262;49.836;6.632;2023-01-28T00:12:41;7.97;;;6.10;;
39346;SDS011;26262;49.836;6.632;2023-01-28T00:15:07;7.00;;;4.78;;
39346;SDS011;26262;49.836;6.632;2023-01-28T00:17:33;8.25;;;5.35;;
39346;SDS011;26262;49.836;6.632;2023-01-28T00:20:00;6.95;;;5.13;;
39346;SDS011;26262;49.836;6.632;2023-01-28T00:22:27;8.05;;;5.47;;
39346;SDS011;26262;49.836;6.632;2023-01-28T00:24:52;6.95;;;4.78;;
39346;SDS011;26262;49.836;6.632;2023-01-28T00:27:18;7.18;;;5.18;;
39346;SDS011;26262;49.836;6.632;2023-01-28T00:29:43;6.82;;;5.15;;
39346;SDS011;26262;49.836;6.632;2023-01-28T00:32:09;6.03;;;4.95;;
39346;SDS011;26262;49.836;6.632;2023-01-28T00:34:34;5.70;;;4.05;;
39346;SDS011;26262;49.836;6.632;2023-01-28T00:37:00;6.07;;;4.45;;
39346;SDS011;26262;49.836;6.632;2023-01-28T00:39:26;5.85;;;4.45;;
39346;SDS011;26262;49.836;6.632;2023-01-28T00:41:52;5.00;;;4.13;;
39346;SDS011;26262;49.836;6.632;2023-01-28T00:44:18;5.82;;;4.28;;
39346;SDS011;26262;49.836;6.632;2023-01-28T00:46:44;5.75;;;4.35;;
39346;SDS011;26262;49.836;6.632;2023-01-28T00:49:10;5.45;;;4.03;;
39346;SDS011;26262;49.836;6.632;2023-01-28T00:51:35;6.07;;;4.55;;
39346;SDS011;26262;49.836;6.632;2023-01-28T00:54:01;6.13;;;4.53;;
39346;SDS011;26262;49.836;6.632;2023-01-28T00:56:26;4.93;;;3.88;;
39346;SDS011;26262;49.836;6.632;2023-01-28T00:58:52;5.15;;;4.30;;
39346;SDS011;26262;49.836;6.632;2023-01-28T01:01:19;5.13;;;4.15;;
39346;SDS011;26262;49.836;6.632;2023-01-28T01:03:46;5.60;;;3.88;;
39346;SDS011;26262;49.836;6.632;2023-01-28T01:06:18;5.40;;;4.18;;
39346;SDS011;26262;49.836;6.632;2023-01-28T01:08:43;6.68;;;4.35;;
39346;SDS011;26262;49.836;6.632;2023-01-28T01:11:14;4.82;;;4.10;;
39346;SDS011;26262;49.836;6.632;2023-01-28T01:13:40;6.30;;;4.90;;
39346;SDS011;26262;49.836;6.632;2023-01-28T01:16:10;5.63;;;4.15;;
39346;SDS011;26262;49.836;6.632;2023-01-28T01:18:38;6.15;;;4.43;;
39346;SDS011;26262;49.836;6.632;2023-01-28T01:21:08;5.43;;;4.20;;
39346;SDS011;26262;49.836;6.632;2023-01-28T01:23:39;6.90;;;4.72;;
39346;SDS011;26262;49.836;6.632;2023-01-28T01:26:05;7.70;;;5.05;;
39346;SDS011;26262;49.836;6.632;2023-01-28T01:28:31;7.23;;;5.10;;
39346;SDS011;26262;49.836;6.632;2023-01-28T01:31:16;5.60;;;4.47;;
39346;SDS011;26262;49.836;6.632;2023-01-28T01:33:45;6.43;;;4.72;;
39346;SDS011;26262;49.836;6.632;2023-01-28T01:36:12;5.32;;;4.18;;
39346;SDS011;26262;49.836;6.632;2023-01-28T01:38:39;6.32;;;4.72;;
39346;SDS011;26262;49.836;6.632;2023-01-28T01:41:05;6.38;;;4.50;;
39346;SDS011;26262;49.836;6.632;2023-01-28T01:43:44;5.82;;;4.13;;
39346;SDS011;26262;49.836;6.632;2023-01-28T01:46:19;6.63;;;4.80;;
39346;SDS011;26262;49.836;6.632;2023-01-28T01:48:49;6.85;;;4.55;;
39346;SDS011;26262;49.836;6.632;2023-01-28T01:51:18;5.85;;;4.63;;
39346;SDS011;26262;49.836;6.632;2023-01-28T01:53:48;5.15;;;4.10;;
39346;SDS011;26262;49.836;6.632;2023-01-28T01:56:18;5.97;;;4.43;;
39346;SDS011;26262;49.836;6.632;2023-01-28T01:58:47;6.53;;;4.13;;
39346;SDS011;26262;49.836;6.632;2023-01-28T02:01:18;7.03;;;4.80;;
39346;SDS011;26262;49.836;6.632;2023-01-28T02:06:27;6.78;;;4.80;;
39346;SDS011;26262;49.836;6.632;2023-01-28T02:08:54;5.43;;;4.43;;
39346;SDS011;26262;49.836;6.632;2023-01-28T02:11:20;5.65;;;4.60;;
39346;SDS011;26262;49.836;6.632;2023-01-28T02:13:49;6.25;;;5.05;;
39346;SDS011;26262;49.836;6.632;2023-01-28T02:16:18;5.20;;;4.20;;
39346;SDS011;26262;49.836;6.632;2023-01-28T02:18:44;6.55;;;5.00;;
39346;SDS011;26262;49.836;6.632;2023-01-28T02:32:44;6.07;;;4.47;;
39346;SDS011;26262;49.836;6.632;2023-01-28T02:35:28;8.00;;;6.00;;
39346;SDS011;26262;49.836;6.632;2023-01-28T02:38:47;6.78;;;4.95;;
39346;SDS011;26262;49.836;6.632;2023-01-28T02:41:00;5.97;;;4.35;;
39346;SDS011;26262;49.836;6.632;2023-01-28T02:43:35;7.50;;;4.88;;
39346;SDS011;26262;49.836;6.632;2023-01-28T02:49:11;6.95;;;5.10;;
39346;SDS011;26262;49.836;6.632;2023-01-28T02:54:26;5.75;;;4.38;;
39346;SDS011;26262;49.836;6.632;2023-01-28T02:57:00;5.25;;;4.55;;
39346;SDS011;26262;49.836;6.632;2023-01-28T02:59:43;6.03;;;4.38;;
39346;SDS011;26262;49.836;6.632;2023-01-28T03:02:29;5.05;;;4.10;;
39346;SDS011;26262;49.836;6.632;2023-01-28T03:05:04;5.78;;;4.38;;
39346;SDS011;26262;49.836;6.632;2023-01-28T03:07:38;4.90;;;4.13;;
39346;SDS011;26262;49.836;6.632;2023-01-28T03:10:06;4.90;;;3.85;;
39346;SDS011;26262;49.836;6.632;2023-01-28T03:12:35;5.20;;;3.75;;
39346;SDS011;26262;49.836;6.632;2023-01-28T03:18:19;5.65;;;4.22;;
39346;SDS011;26262;49.836;6.632;2023-01-28T03:24:10;5.13;;;3.90;;
39346;SDS011;26262;49.836;6.632;2023-01-28T03:27:01;5.75;;;4.25;;
39346;SDS011;26262;49.836;6.632;2023-01-28T03:29:52;5.10;;;3.70;;
39346;SDS011;26262;49.836;6.632;2023-01-28T03:32:38;5.38;;;4.13;;
39346;SDS011;26262;49.836;6.632;2023-01-28T03:35:24;5.35;;;4.18;;
39346;SDS011;26262;49.836;6.632;2023-01-28T03:38:12;5.60;;;3.72;;
39346;SDS011;26262;49.836;6.632;2023-01-28T03:41:08;6.28;;;4.28;;
39346;SDS011;26262;49.836;6.632;2023-01-28T03:43:34;5.88;;;4.30;;
39346;SDS011;26262;49.836;6.632;2023-01-28T03:46:00;5.45;;;4.00;;
39346;SDS011;26262;49.836;6.632;2023-01-28T03:48:27;7.15;;;4.82;;
39346;SDS011;26262;49.836;6.632;2023-01-28T03:50:56;6.15;;;4.38;;
39346;SDS011;26262;49.836;6.632;2023-01-28T03:53:24;7.50;;;4.60;;
39346;SDS011;26262;49.836;6.632;2023-01-28T03:55:50;5.72;;;4.18;;
39346;SDS011;26262;49.836;6.632;2023-01-28T03:58:17;6.20;;;4.25;;
39346;SDS011;26262;49.836;6.632;2023-01-28T04:00:43;5.97;;;4.15;;
39346;SDS011;26262;49.836;6.632;2023-01-28T04:03:18;7.97;;;5.38;;
39346;SDS011;26262;49.836;6.632;2023-01-28T04:05:58;7.50;;;5.25;;
39346;SDS011;26262;49.836;6.632;2023-01-28T04:08:25;7.22;;;4.93;;
39346;SDS011;26262;49.836;6.632;2023-01-28T04:10:51;6.07;;;4.75;;
39346;SDS011;26262;49.836;6.632;2023-01-28T04:13:16;6.70;;;4.80;;
39346;SDS011;26262;49.836;6.632;2023-01-28T04:15:42;5.90;;;4.20;;
39346;SDS011;26262;49.836;6.632;2023-01-28T04:18:09;6.25;;;4.88;;
39346;SDS011;26262;49.836;6.632;2023-01-28T04:20:35;4.78;;;3.83;;
39346;SDS011;26262;49.836;6.632;2023-01-28T04:23:01;6.43;;;4.35;;
39346;SDS011;26262;49.836;6.632;2023-01-28T04:25:26;5.70;;;4.40;;
39346;SDS011;26262;49.836;6.632;2023-01-28T04:27:52;5.25;;;4.38;;
39346;SDS011;26262;49.836;6.632;2023-01-28T04:30:18;5.82;;;4.00;;
39346;SDS011;26262;49.836;6.632;2023-01-28T04:32:45;5.85;;;3.97;;
39346;SDS011;26262;49.836;6.632;2023-01-28T04:35:11;4.53;;;3.42;;
39346;SDS011;26262;49.836;6.632;2023-01-28T04:37:37;4.85;;;3.78;;
39346;SDS011;26262;49.836;6.632;2023-01-28T04:40:04;4.85;;;3.65;;
39346;SDS011;26262;49.836;6.632;2023-01-28T04:42:30;5.88;;;4.05;;
39346;SDS011;26262;49.836;6.632;2023-01-28T04:44:56;5.63;;;3.53;;
39346;SDS011;26262;49.836;6.632;2023-01-28T04:47:21;6.15;;;3.92;;
39346;SDS011;26262;49.836;6.632;2023-01-28T04:49:47;4.95;;;3.70;;
39346;SDS011;26262;49.836;6.632;2023-01-28T04:52:12;4.53;;;3.38;;
39346;SDS011;26262;49.836;6.632;2023-01-28T04:54:38;5.75;;;3.90;;
39346;SDS011;26262;49.836;6.632;2023-01-28T04:57:03;4.53;;;3.72;;
39346;SDS011;26262;49.836;6.632;2023-01-28T04:59:29;5.80;;;4.47;;
39346;SDS011;26262;49.836;6.632;2023-01-28T05:01:55;8.80;;;6.05;;
39346;SDS011;26262;49.836;6.632;2023-01-28T05:04:20;14.68;;;8.98;;
39346;SDS011;26262;49.836;6.632;2023-01-28T05:06:46;12.18;;;7.93;;
39346;SDS011;26262;49.836;6.632;2023-01-28T05:09:11;7.03;;;5.22;;
39346;SDS011;26262;49.836;6.632;2023-01-28T05:11:37;7.60;;;5.32;;
39346;SDS011;26262;49.836;6.632;2023-01-28T05:14:02;5.13;;;4.18;;
39346;SDS011;26262;49.836;6.632;2023-01-28T05:16:29;5.70;;;4.70;;
39346;SDS011;26262;49.836;6.632;2023-01-28T05:18:55;4.72;;;3.85;;
39346;SDS011;26262;49.836;6.632;2023-01-28T05:21:21;5.30;;;4.13;;
39346;SDS011;26262;49.836;6.632;2023-01-28T05:23:46;5.40;;;4.07;;
39346;SDS011;26262;49.836;6.632;2023-01-28T05:26:12;4.78;;;3.78;;
39346;SDS011;26262;49.836;6.632;2023-01-28T05:28:38;5.43;;;4.10;;
39346;SDS011;26262;49.836;6.632;2023-01-28T05:31:04;4.82;;;3.50;;
39346;SDS011;26262;49.836;6.632;2023-01-28T05:33:30;4.80;;;3.40;;
39346;SDS011;26262;49.836;6.632;2023-01-28T05:35:56;4.78;;;3.28;;
39346;SDS011;26262;49.836;6.632;2023-01-28T05:38:22;5.00;;;3.45;;
39346;SDS011;26262;49.836;6.632;2023-01-28T05:40:47;5.82;;;3.60;;
39346;SDS011;26262;49.836;6.632;2023-01-28T05:43:13;5.45;;;3.42;;
39346;SDS011;26262;49.836;6.632;2023-01-28T05:45:39;4.70;;;3.33;;
39346;SDS011;26262;49.836;6.632;2023-01-28T05:48:04;4.22;;;3.50;;
39346;SDS011;26262;49.836;6.632;2023-01-28T05:50:30;5.03;;;3.28;;
39346;SDS011;26262;49.836;6.632;2023-01-28T05:52:56;5.80;;;3.17;;
39346;SDS011;26262;49.836;6.632;2023-01-28T05:55:22;5.20;;;3.60;;
39346;SDS011;26262;49.836;6.632;2023-01-28T05:57:47;4.65;;;3.63;;
39346;SDS011;26262;49.836;6.632;2023-01-28T06:00:13;5.20;;;3.63;;
39346;SDS011;26262;49.836;6.632;2023-01-28T06:02:40;4.53;;;3.53;;
39346;SDS011;26262;49.836;6.632;2023-01-28T06:05:06;6.07;;;3.97;;
39346;SDS011;26262;49.836;6.632;2023-01-28T06:07:32;5.10;;;3.83;;
39346;SDS011;26262;49.836;6.632;2023-01-28T06:09:57;6.93;;;5.18;;
39346;SDS011;26262;49.836;6.632;2023-01-28T06:12:23;6.78;;;4.65;;
39346;SDS011;26262;49.836;6.632;2023-01-28T06:14:48;5.18;;;4.05;;
39346;SDS011;26262;49.836;6.632;2023-01-28T06:17:14;5.65;;;4.20;;
39346;SDS011;26262;49.836;6.632;2023-01-28T06:19:39;6.30;;;4.30;;
39346;SDS011;26262;49.836;6.632;2023-01-28T06:22:05;5.00;;;4.18;;
39346;SDS011;26262;49.836;6.632;2023-01-28T06:24:30;5.03;;;3.53;;
39346;SDS011;26262;49.836;6.632;2023-01-28T06:26:56;4.72;;;3.55;;
39346;SDS011;26262;49.836;6.632;2023-01-28T06:29:22;6.43;;;4.13;;
39346;SDS011;26262;49.836;6.632;2023-01-28T06:31:47;4.82;;;4.00;;
39346;SDS011;26262;49.836;6.632;2023-01-28T06:34:13;5.07;;;3.58;;
39346;SDS011;26262;49.836;6.632;2023-01-28T06:36:39;5.50;;;3.90;;
39346;SDS011;26262;49.836;6.632;2023-01-28T06:39:05;4.82;;;3.97;;
39346;SDS011;26262;49.836;6.632;2023-01-28T06:41:30;5.15;;;3.90;;
39346;SDS011;26262;49.836;6.632;2023-01-28T06:43:56;5.20;;;4.40;;
39346;SDS011;26262;49.836;6.632;2023-01-28T06:46:21;5.00;;;3.70;;
39346;SDS011;26262;49.836;6.632;2023-01-28T06:48:48;5.30;;;3.88;;
39346;SDS011;26262;49.836;6.632;2023-01-28T06:51:13;5.40;;;3.45;;
39346;SDS011;26262;49.836;6.632;2023-01-28T06:53:39;5.30;;;4.13;;
39346;SDS011;26262;49.836;6.632;2023-01-28T06:56:05;6.07;;;3.92;;
39346;SDS011;26262;49.836;6.632;2023-01-28T06:58:31;5.82;;;4.03;;
39346;SDS011;26262;49.836;6.632;2023-01-28T07:00:57;6.20;;;4.22;;
39346;SDS011;26262;49.836;6.632;2023-01-28T07:03:23;6.03;;;4.63;;
39346;SDS011;26262;49.836;6.632;2023-01-28T07:05:48;6.50;;;4.82;;
39346;SDS011;26262;49.836;6.632;2023-01-28T07:08:14;5.95;;;4.75;;
39346;SDS011;26262;49.836;6.632;2023-01-28T07:10:39;7.95;;;5.43;;
39346;SDS011;26262;49.836;6.632;2023-01-28T07:13:05;8.02;;;5.40;;
39346;SDS011;26262;49.836;6.632;2023-01-28T07:15:30;6.88;;;4.97;;
39346;SDS011;26262;49.836;6.632;2023-01-28T07:17:56;8.77;;;5.95;;
39346;SDS011;26262;49.836;6.632;2023-01-28T07:20:21;9.70;;;6.80;;
39346;SDS011;26262;49.836;6.632;2023-01-28T07:22:47;8.68;;;6.25;;
39346;SDS011;26262;49.836;6.632;2023-01-28T07:25:13;8.18;;;6.18;;
39346;SDS011;26262;49.836;6.632;2023-01-28T07:27:39;9.25;;;5.88;;
39346;SDS011;26262;49.836;6.632;2023-01-28T07:30:09;7.22;;;5.22;;
39346;SDS011;26262;49.836;6.632;2023-01-28T07:32:35;6.72;;;5.40;;
39346;SDS011;26262;49.836;6.632;2023-01-28T07:35:01;6.90;;;5.03;;
39346;SDS011;26262;49.836;6.632;2023-01-28T07:37:26;7.22;;;5.35;;
39346;SDS011;26262;49.836;6.632;2023-01-28T07:39:52;7.65;;;5.72;;
39346;SDS011;26262;49.836;6.632;2023-01-28T07:42:17;8.55;;;6.22;;
39346;SDS011;26262;49.836;6.632;2023-01-28T07:44:43;7.22;;;5.32;;
39346;SDS011;26262;49.836;6.632;2023-01-28T07:47:08;8.10;;;5.82;;
39346;SDS011;26262;49.836;6.632;2023-01-28T07:49:34;9.65;;;7.30;;
39346;SDS011;26262;49.836;6.632;2023-01-28T07:52:00;8.43;;;6.93;;
39346;SDS011;26262;49.836;6.632;2023-01-28T07:54:25;7.28;;;6.03;;
39346;SDS011;26262;49.836;6.632;2023-01-28T07:56:51;7.25;;;5.70;;
39346;SDS011;26262;49.836;6.632;2023-01-28T07:59:16;7.68;;;5.78;;
39346;SDS011;26262;49.836;6.632;2023-01-28T08:01:42;7.82;;;6.00;;
39346;SDS011;26262;49.836;6.632;2023-01-28T08:04:08;8.45;;;6.05;;
39346;SDS011;26262;49.836;6.632;2023-01-28T08:06:33;9.23;;;6.63;;
39346;SDS011;26262;49.836;6.632;2023-01-28T08:09:02;9.43;;;6.30;;
39346;SDS011;26262;49.836;6.632;2023-01-28T08:11:32;9.82;;;6.50;;
39346;SDS011;26262;49.836;6.632;2023-01-28T08:13:58;11.85;;;7.55;;
39346;SDS011;26262;49.836;6.632;2023-01-28T08:16:24;8.88;;;6.85;;
39346;SDS011;26262;49.836;6.632;2023-01-28T08:18:49;8.25;;;6.57;;
39346;SDS011;26262;49.836;6.632;2023-01-28T08:21:16;12.38;;;8.32;;
39346;SDS011;26262;49.836;6.632;2023-01-28T08:23:41;29.88;;;18.38;;
39346;SDS011;26262;49.836;6.632;2023-01-28T08:26:07;27.50;;;16.52;;
39346;SDS011;26262;49.836;6.632;2023-01-28T08:28:33;32.13;;;20.50;;
39346;SDS011;26262;49.836;6.632;2023-01-28T08:30:59;45.42;;;27.38;;
39346;SDS011;26262;49.836;6.632;2023-01-28T08:33:24;21.85;;;12.50;;
39346;SDS011;26262;49.836;6.632;2023-01-28T08:35:50;13.45;;;9.70;;
39346;SDS011;26262;49.836;6.632;2023-01-28T08:38:15;14.98;;;10.88;;
39346;SDS011;26262;49.836;6.632;2023-01-28T08:40:41;12.25;;;8.77;;
39346;SDS011;26262;49.836;6.632;2023-01-28T08:43:07;10.68;;;8.13;;
39346;SDS011;26262;49.836;6.632;2023-01-28T08:45:33;10.38;;;8.18;;
39346;SDS011;26262;49.836;6.632;2023-01-28T08:47:59;12.13;;;8.70;;
39346;SDS011;26262;49.836;6.632;2023-01-28T08:50:28;10.85;;;7.93;;
39346;SDS011;26262;49.836;6.632;2023-01-28T08:52:57;12.73;;;8.80;;
39346;SDS011;26262;49.836;6.632;2023-01-28T08:55:25;11.40;;;9.38;;
39346;SDS011;26262;49.836;6.632;2023-01-28T08:57:51;12.30;;;8.30;;
39346;SDS011;26262;49.836;6.632;2023-01-28T09:00:17;12.60;;;8.27;;
39346;SDS011;26262;49.836;6.632;2023-01-28T09:02:43;10.57;;;8.18;;
39346;SDS011;26262;49.836;6.632;2023-01-28T09:05:09;12.57;;;8.98;;
39346;SDS011;26262;49.836;6.632;2023-01-28T09:07:35;13.43;;;10.50;;
39346;SDS011;26262;49.836;6.632;2023-01-28T09:10:00;11.38;;;8.90;;
39346;SDS011;26262;49.836;6.632;2023-01-28T09:12:26;11.38;;;8.10;;
39346;SDS011;26262;49.836;6.632;2023-01-28T09:14:52;13.55;;;8.30;;
39346;SDS011;26262;49.836;6.632;2023-01-28T09:17:18;9.15;;;7.57;;
39346;SDS011;26262;49.836;6.632;2023-01-28T09:19:44;9.27;;;7.72;;
39346;SDS011;26262;49.836;6.632;2023-01-28T09:22:10;27.00;;;24.10;;
39346;SDS011;26262;49.836;6.632;2023-01-28T09:24:35;9.68;;;8.50;;
39346;SDS011;26262;49.836;6.632;2023-01-28T09:27:01;18.23;;;12.63;;
39346;SDS011;26262;49.836;6.632;2023-01-28T09:29:26;11.07;;;8.18;;
39346;SDS011;26262;49.836;6.632;2023-01-28T09:31:52;43.33;;;27.88;;
39346;SDS011;26262;49.836;6.632;2023-01-28T09:34:18;15.70;;;11.60;;
39346;SDS011;26262;49.836;6.632;2023-01-28T09:36:44;8.90;;;6.97;;
39346;SDS011;26262;49.836;6.632;2023-01-28T09:39:10;11.77;;;8.68;;
39346;SDS011;26262;49.836;6.632;2023-01-28T09:44:04;18.85;;;16.08;;
39346;SDS011;26262;49.836;6.632;2023-01-28T09:52:13;8.63;;;6.78;;
39346;SDS011;26262;49.836;6.632;2023-01-28T09:54:46;8.45;;;6.32;;
39346;SDS011;26262;49.836;6.632;2023-01-28T09:57:33;8.57;;;7.07;;
39346;SDS011;26262;49.836;6.632;2023-01-28T10:00:17;7.55;;;6.13;;
39346;SDS011;26262;49.836;6.632;2023-01-28T10:03:03;8.98;;;6.25;;
39346;SDS011;26262;49.836;6.632;2023-01-28T10:08:15;6.68;;;5.40;;
39346;SDS011;26262;49.836;6.632;2023-01-28T10:11:12;8.57;;;6.07;;
39346;SDS011;26262;49.836;6.632;2023-01-28T10:14:07;7.13;;;5.30;;
39346;SDS011;26262;49.836;6.632;2023-01-28T10:16:41;6.35;;;4.97;;
39346;SDS011;26262;49.836;6.632;2023-01-28T10:19:15;8.57;;;5.50;;
39346;SDS011;26262;49.836;6.632;2023-01-28T10:21:48;8.10;;;6.70;;
39346;SDS011;26262;49.836;6.632;2023-01-28T10:24:35;10.20;;;5.18;;
39346;SDS011;26262;49.836;6.632;2023-01-28T10:27:13;5.97;;;4.80;;
39346;SDS011;26262;49.836;6.632;2023-01-28T10:29:41;6.25;;;4.90;;
39346;SDS011;26262;49.836;6.632;2023-01-28T10:32:25;14.80;;;12.32;;
39346;SDS011;26262;49.836;6.632;2023-01-28T10:34:58;24.38;;;20.10;;
39346;SDS011;26262;49.836;6.632;2023-01-28T10:37:25;8.25;;;6.30;;
39346;SDS011;26262;49.836;6.632;2023-01-28T10:39:55;10.98;;;8.57;;
39346;SDS011;26262;49.836;6.632;2023-01-28T10:42:26;6.30;;;5.45;;
39346;SDS011;26262;49.836;6.632;2023-01-28T10:45:16;5.57;;;4.07;;
39346;SDS011;26262;49.836;6.632;2023-01-28T10:50:51;6.43;;;3.63;;
39346;SDS011;26262;49.836;6.632;2023-01-28T10:53:39;6.05;;;4.13;;
39346;SDS011;26262;49.836;6.632;2023-01-28T10:56:16;5.82;;;3.92;;
39346;SDS011;26262;49.836;6.632;2023-01-28T11:02:28;5.80;;;4.50;;
39346;SDS011;26262;49.836;6.632;2023-01-28T11:04:29;5.72;;;4.03;;
39346;SDS011;26262;49.836;6.632;2023-01-28T11:07:01;4.05;;;2.80;;
39346;SDS011;26262;49.836;6.632;2023-01-28T11:09:30;4.13;;;3.00;;
39346;SDS011;26262;49.836;6.632;2023-01-28T11:12:16;4.97;;;3.63;;
39346;SDS011;26262;49.836;6.632;2023-01-28T11:14:52;4.85;;;2.90;;
39346;SDS011;26262;49.836;6.632;2023-01-28T11:17:23;4.75;;;3.20;;
39346;SDS011;26262;49.836;6.632;2023-01-28T11:19:54;4.25;;;3.03;;
39346;SDS011;26262;49.836;6.632;2023-01-28T11:22:23;3.03;;;2.47;;
39346;SDS011;26262;49.836;6.632;2023-01-28T11:24:51;3.75;;;2.47;;
39346;SDS011;26262;49.836;6.632;2023-01-28T11:27:17;4.00;;;3.20;;
39346;SDS011;26262;49.836;6.632;2023-01-28T11:29:51;5.05;;;2.30;;
39346;SDS011;26262;49.836;6.632;2023-01-28T11:32:23;4.20;;;2.58;;
39346;SDS011;26262;49.836;6.632;2023-01-28T11:34:50;2.85;;;1.85;;
39346;SDS011;26262;49.836;6.632;2023-01-28T11:37:19;3.22;;;2.15;;
39346;SDS011;26262;49.836;6.632;2023-01-28T11:39:46;2.67;;;1.88;;
39346;SDS011;26262;49.836;6.632;2023-01-28T11:42:21;2.30;;;1.60;;
39346;SDS011;26262;49.836;6.632;2023-01-28T11:44:47;3.25;;;1.90;;
39346;SDS011;26262;49.836;6.632;2023-01-28T11:47:22;3.90;;;2.70;;
39346;SDS011;26262;49.836;6.632;2023-01-28T11:52:35;6.10;;;3.42;;
39346;SDS011;26262;49.836;6.632;2023-01-28T11:55:41;3.80;;;2.47;;
39346;SDS011;26262;49.836;6.632;2023-01-28T11:58:21;4.82;;;3.95;;
39346;SDS011;26262;49.836;6.632;2023-01-28T12:20:29;3.88;;;3.50;;
39346;SDS011;26262;49.836;6.632;2023-01-28T12:28:43;2.08;;;1.40;;
39346;SDS011;26262;49.836;6.632;2023-01-28T12:34:06;3.97;;;2.72;;
39346;SDS011;26262;49.836;6.632;2023-01-28T12:36:43;33.08;;;18.20;;
39346;SDS011;26262;49.836;6.632;2023-01-28T12:44:51;5.28;;;4.72;;
39346;SDS011;26262;49.836;6.632;2023-01-28T12:47:26;7.28;;;5.78;;
39346;SDS011;26262;49.836;6.632;2023-01-28T12:50:15;4.80;;;3.53;;
39346;SDS011;26262;49.836;6.632;2023-01-28T12:52:55;4.47;;;3.42;;
39346;SDS011;26262;49.836;6.632;2023-01-28T12:55:40;5.25;;;3.33;;
39346;SDS011;26262;49.836;6.632;2023-01-28T12:58:19;14.90;;;10.95;;
39346;SDS011;26262;49.836;6.632;2023-01-28T13:00:50;4.40;;;2.92;;
39346;SDS011;26262;49.836;6.632;2023-01-28T13:06:22;5.22;;;4.00;;
39346;SDS011;26262;49.836;6.632;2023-01-28T13:09:00;6.43;;;4.90;;
39346;SDS011;26262;49.836;6.632;2023-01-28T13:11:35;3.78;;;2.90;;
39346;SDS011;26262;49.836;6.632;2023-01-28T13:14:02;4.55;;;2.88;;
39346;SDS011;26262;49.836;6.632;2023-01-28T13:16:29;6.22;;;4.35;;
39346;SDS011;26262;49.836;6.632;2023-01-28T13:19:03;4.93;;;3.55;;
39346;SDS011;26262;49.836;6.632;2023-01-28T13:21:32;5.22;;;3.20;;
39346;SDS011;26262;49.836;6.632;2023-01-28T13:24:03;4.35;;;2.95;;
39346;SDS011;26262;49.836;6.632;2023-01-28T13:26:43;5.13;;;3.17;;
39346;SDS011;26262;49.836;6.632;2023-01-28T13:31:40;3.58;;;2.60;;
39346;SDS011;26262;49.836;6.632;2023-01-28T13:34:10;14.88;;;9.52;;
39346;SDS011;26262;49.836;6.632;2023-01-28T13:36:53;9.70;;;8.23;;
39346;SDS011;26262;49.836;6.632;2023-01-28T13:39:22;3.63;;;2.35;;
39346;SDS011;26262;49.836;6.632;2023-01-28T13:44:27;3.40;;;2.70;;
39346;SDS011;26262;49.836;6.632;2023-01-28T13:46:58;3.83;;;2.63;;
39346;SDS011;26262;49.836;6.632;2023-01-28T13:49:49;3.65;;;2.97;;
39346;SDS011;26262;49.836;6.632;2023-01-28T13:52:41;3.70;;;2.30;;
39346;SDS011;26262;49.836;6.632;2023-01-28T13:55:17;3.10;;;1.90;;
39346;SDS011;26262;49.836;6.632;2023-01-28T14:00:39;3.63;;;2.00;;
39346;SDS011;26262;49.836;6.632;2023-01-28T14:03:33;4.53;;;1.70;;
39346;SDS011;26262;49.836;6.632;2023-01-28T14:09:22;6.93;;;5.55;;
39346;SDS011;26262;49.836;6.632;2023-01-28T14:14:46;6.70;;;3.55;;
39346;SDS011;26262;49.836;6.632;2023-01-28T14:19:58;6.22;;;4.28;;
39346;SDS011;26262;49.836;6.632;2023-01-28T14:22:25;4.55;;;3.40;;
39346;SDS011;26262;49.836;6.632;2023-01-28T14:24:51;3.78;;;3.30;;
39346;SDS011;26262;49.836;6.632;2023-01-28T14:27:19;4.00;;;2.90;;
39346;SDS011;26262;49.836;6.632;2023-01-28T14:32:48;4.50;;;3.15;;
39346;SDS011;26262;49.836;6.632;2023-01-28T14:35:23;4.00;;;2.50;;
39346;SDS011;26262;49.836;6.632;2023-01-28T14:37:53;4.43;;;2.67;;
39346;SDS011;26262;49.836;6.632;2023-01-28T14:40:19;5.60;;;3.25;;
39346;SDS011;26262;49.836;6.632;2023-01-28T14:42:46;5.35;;;3.47;;
39346;SDS011;26262;49.836;6.632;2023-01-28T14:48:20;7.38;;;5.70;;
39346;SDS011;26262;49.836;6.632;2023-01-28T14:59:35;7.35;;;4.93;;
39346;SDS011;26262;49.836;6.632;2023-01-28T15:02:23;4.10;;;2.50;;
39346;SDS011;26262;49.836;6.632;2023-01-28T15:04:50;3.97;;;2.55;;
39346;SDS011;26262;49.836;6.632;2023-01-28T15:07:20;3.83;;;2.75;;
39346;SDS011;26262;49.836;6.632;2023-01-28T15:10:00;5.05;;;3.58;;
39346;SDS011;26262;49.836;6.632;2023-01-28T15:12:54;3.75;;;3.05;;
39346;SDS011;26262;49.836;6.632;2023-01-28T15:15:35;4.57;;;3.33;;
39346;SDS011;26262;49.836;6.632;2023-01-28T15:20:48;5.85;;;4.20;;
39346;SDS011;26262;49.836;6.632;2023-01-28T15:23:17;11.23;;;8.05;;
39346;SDS011;26262;49.836;6.632;2023-01-28T15:25:48;10.98;;;8.85;;
39346;SDS011;26262;49.836;6.632;2023-01-28T15:28:20;8.05;;;6.20;;
39346;SDS011;26262;49.836;6.632;2023-01-28T15:30:53;11.35;;;7.60;;
39346;SDS011;26262;49.836;6.632;2023-01-28T15:33:20;9.52;;;6.60;;
39346;SDS011;26262;49.836;6.632;2023-01-28T15:35:54;9.55;;;5.53;;
39346;SDS011;26262;49.836;6.632;2023-01-28T15:38:20;6.57;;;5.22;;
39346;SDS011;26262;49.836;6.632;2023-01-28T15:40:48;8.30;;;6.22;;
39346;SDS011;26262;49.836;6.632;2023-01-28T15:43:21;8.00;;;5.07;;
39346;SDS011;26262;49.836;6.632;2023-01-28T15:45:53;5.90;;;4.30;;
39346;SDS011;26262;49.836;6.632;2023-01-28T15:48:20;4.03;;;3.45;;
39346;SDS011;26262;49.836;6.632;2023-01-28T15:50:56;5.35;;;4.28;;
39346;SDS011;26262;49.836;6.632;2023-01-28T15:53:44;9.68;;;5.95;;
39346;SDS011;26262;49.836;6.632;2023-01-28T15:56:12;7.93;;;4.95;;
39346;SDS011;26262;49.836;6.632;2023-01-28T15:58:39;8.98;;;6.95;;
39346;SDS011;26262;49.836;6.632;2023-01-28T16:01:11;10.97;;;7.43;;
39346;SDS011;26262;49.836;6.632;2023-01-28T16:03:40;11.18;;;8.50;;
39346;SDS011;26262;49.836;6.632;2023-01-28T16:06:15;9.13;;;6.70;;
39346;SDS011;26262;49.836;6.632;2023-01-28T16:08:50;9.60;;;6.88;;
39346;SDS011;26262;49.836;6.632;2023-01-28T16:11:23;11.85;;;8.80;;
39346;SDS011;26262;49.836;6.632;2023-01-28T16:13:52;10.52;;;9.07;;
39346;SDS011;26262;49.836;6.632;2023-01-28T16:16:52;14.75;;;13.25;;
39346;SDS011;26262;49.836;6.632;2023-01-28T16:19:14;9.88;;;7.45;;
39346;SDS011;26262;49.836;6.632;2023-01-28T16:21:53;8.60;;;7.38;;
39346;SDS011;26262;49.836;6.632;2023-01-28T16:24:22;7.70;;;6.07;;
39346;SDS011;26262;49.836;6.632;2023-01-28T16:26:56;12.73;;;9.57;;
39346;SDS011;26262;49.836;6.632;2023-01-28T16:29:42;8.00;;;6.70;;
39346;SDS011;26262;49.836;6.632;2023-01-28T16:32:23;7.53;;;6.35;;
39346;SDS011;26262;49.836;6.632;2023-01-28T16:34:51;12.10;;;8.80;;
39346;SDS011;26262;49.836;6.632;2023-01-28T16:37:17;30.92;;;22.60;;
39346;SDS011;26262;49.836;6.632;2023-01-28T16:39:42;15.00;;;11.35;;
39346;SDS011;26262;49.836;6.632;2023-01-28T16:42:08;10.43;;;8.32;;
39346;SDS011;26262;49.836;6.632;2023-01-28T16:44:33;9.02;;;7.57;;
39346;SDS011;26262;49.836;6.632;2023-01-28T16:46:59;12.60;;;9.43;;
39346;SDS011;26262;49.836;6.632;2023-01-28T16:49:25;13.63;;;11.25;;
39346;SDS011;26262;49.836;6.632;2023-01-28T16:51:50;9.25;;;7.25;;
39346;SDS011;26262;49.836;6.632;2023-01-28T16:54:17;7.35;;;6.35;;
39346;SDS011;26262;49.836;6.632;2023-01-28T16:56:42;7.32;;;6.50;;
39346;SDS011;26262;49.836;6.632;2023-01-28T16:59:09;9.70;;;8.00;;